Time;durP1;ratioP1;P1;durP2;ratioP2;P2;SDS_P1;SDS_P2;PMS_P1;PMS_P2;Temp;Humidity;BMP_temperature;BMP_pressure;BME280_temperature;BME280_humidity;BME280_pressure;Samples;Min_cycle;Max_cycle;Signal;HPM_P1;HPM_P2
2022/10/28 00:00:03;;;;;;;19.50;12.00;;;;;;;;;;5034520;28;20099;-65
2022/10/28 00:02:29;;;;;;;23.25;12.52;;;;;;;;;;5038927;28;20996;-65
2022/10/28 00:04:55;;;;;;;20.95;12.40;;;;;;;;;;5039480;28;20037;-65
2022/10/28 00:07:22;;;;;;;24.35;12.52;;;;;;;;;;5035789;28;20052;-65
2022/10/28 00:09:48;;;;;;;23.50;13.15;;;;;;;;;;5037924;28;20037;-65
2022/10/28 00:12:14;;;;;;;23.95;13.52;;;;;;;;;;5034477;28;20063;-65
2022/10/28 00:14:40;;;;;;;28.40;14.65;;;;;;;;;;5030238;28;20149;-65
2022/10/28 00:17:06;;;;;;;24.92;14.32;;;;;;;;;;5034585;28;20059;-65
2022/10/28 00:19:32;;;;;;;26.95;14.18;;;;;;;;;;5033305;28;20116;-65
2022/10/28 00:21:58;;;;;;;20.77;12.57;;;;;;;;;;5036813;28;20041;-65
2022/10/28 00:24:25;;;;;;;26.15;13.90;;;;;;;;;;5067524;28;20053;-65
2022/10/28 00:26:51;;;;;;;27.05;14.00;;;;;;;;;;5035911;28;20392;-65
2022/10/28 00:29:18;;;;;;;26.58;14.98;;;;;;;;;;5031615;28;20048;-65
2022/10/28 00:31:45;;;;;;;26.15;14.55;;;;;;;;;;5033600;28;20048;-65
2022/10/28 00:34:13;;;;;;;36.92;15.10;;;;;;;;;;5031410;28;20060;-65
2022/10/28 00:36:40;;;;;;;25.73;12.50;;;;;;;;;;5036183;28;20049;-65
2022/10/28 00:39:10;;;;;;;22.50;12.55;;;;;;;;;;5063575;28;20143;-65
2022/10/28 00:41:37;;;;;;;24.52;13.18;;;;;;;;;;5063622;28;20132;-65
2022/10/28 00:44:22;;;;;;;25.48;15.15;;;;;;;;;;5032789;28;20688;-65
2022/10/28 00:46:52;;;;;;;29.83;15.55;;;;;;;;;;5030697;28;20404;-65
2022/10/28 00:49:23;;;;;;;27.00;15.75;;;;;;;;;;5064708;28;20092;-66
2022/10/28 00:51:53;;;;;;;33.58;17.02;;;;;;;;;;5027865;28;20073;-65
2022/10/28 00:54:20;;;;;;;30.45;17.13;;;;;;;;;;5035335;28;20041;-66
2022/10/28 00:56:49;;;;;;;27.33;16.77;;;;;;;;;;5033636;28;20053;-65
2022/10/28 00:59:18;;;;;;;30.17;16.48;;;;;;;;;;5034319;28;20773;-66
2022/10/28 01:01:44;;;;;;;28.83;15.75;;;;;;;;;;5032877;28;20480;-65
2022/10/28 01:04:11;;;;;;;33.25;16.70;;;;;;;;;;5037821;28;20550;-65
2022/10/28 01:06:37;;;;;;;26.98;15.73;;;;;;;;;;5034681;28;20056;-65
2022/10/28 01:09:03;;;;;;;26.52;15.43;;;;;;;;;;5038531;28;20053;-65
2022/10/28 01:11:45;;;;;;;30.20;14.40;;;;;;;;;;5038239;28;20057;-65
2022/10/28 01:14:16;;;;;;;33.00;14.70;;;;;;;;;;5038194;28;20052;-65
2022/10/28 01:16:43;;;;;;;28.65;14.93;;;;;;;;;;5040264;28;20140;-65
2022/10/28 01:19:19;;;;;;;24.55;13.68;;;;;;;;;;5038735;28;20120;-65
2022/10/28 01:22:01;;;;;;;27.50;14.80;;;;;;;;;;5035888;28;20045;-65
2022/10/28 01:24:38;;;;;;;23.55;14.60;;;;;;;;;;5071008;28;20095;-66
2022/10/28 01:27:18;;;;;;;29.13;16.02;;;;;;;;;;5040426;28;20574;-65
2022/10/28 01:29:59;;;;;;;29.83;16.85;;;;;;;;;;5038262;28;20132;-65
2022/10/28 01:32:29;;;;;;;24.90;14.93;;;;;;;;;;5038448;28;20045;-65
2022/10/28 01:35:01;;;;;;;27.70;15.50;;;;;;;;;;5032699;28;20045;-65
2022/10/28 01:37:34;;;;;;;25.40;16.77;;;;;;;;;;5035630;28;20051;-65
2022/10/28 01:40:08;;;;;;;31.25;15.85;;;;;;;;;;5037381;28;20136;-65
2022/10/28 01:42:40;;;;;;;37.13;18.45;;;;;;;;;;5070656;28;20094;-65
2022/10/28 01:45:15;;;;;;;32.35;17.58;;;;;;;;;;5038072;28;20055;-65
2022/10/28 01:47:51;;;;;;;41.00;19.05;;;;;;;;;;5038847;28;20053;-65
2022/10/28 01:50:17;;;;;;;34.83;18.25;;;;;;;;;;5041001;28;20076;-65
2022/10/28 01:52:44;;;;;;;33.90;17.27;;;;;;;;;;5057213;28;20060;-65
2022/10/28 01:55:13;;;;;;;29.83;17.55;;;;;;;;;;5041879;28;20518;-65
2022/10/28 01:57:41;;;;;;;27.95;16.27;;;;;;;;;;5042532;28;20055;-66
2022/10/28 02:00:07;;;;;;;26.98;15.02;;;;;;;;;;5042626;28;20071;-65
2022/10/28 02:02:35;;;;;;;30.38;15.40;;;;;;;;;;5043158;28;20076;-65
2022/10/28 02:05:05;;;;;;;28.65;16.65;;;;;;;;;;5041124;28;20041;-65
2022/10/28 02:07:32;;;;;;;33.78;15.98;;;;;;;;;;5034684;28;20110;-65
2022/10/28 02:09:59;;;;;;;28.58;17.15;;;;;;;;;;5040563;28;20043;-65
2022/10/28 02:12:34;;;;;;;27.17;16.45;;;;;;;;;;5036460;28;20049;-65
2022/10/28 02:15:11;;;;;;;33.08;16.65;;;;;;;;;;5031865;28;20082;-65
2022/10/28 02:17:37;;;;;;;34.08;16.92;;;;;;;;;;5036190;28;20050;-65
2022/10/28 02:20:08;;;;;;;31.35;15.98;;;;;;;;;;5036044;28;20044;-65
2022/10/28 02:22:40;;;;;;;28.67;16.63;;;;;;;;;;5067433;28;20160;-65
2022/10/28 02:25:14;;;;;;;32.55;17.25;;;;;;;;;;5070670;28;20127;-65
2022/10/28 02:27:40;;;;;;;32.28;16.55;;;;;;;;;;5038138;28;20045;-65
2022/10/28 02:30:11;;;;;;;33.65;16.27;;;;;;;;;;5037006;28;20187;-65
2022/10/28 02:32:40;;;;;;;34.38;17.05;;;;;;;;;;5031299;28;20051;-65
2022/10/28 02:35:10;;;;;;;32.88;16.48;;;;;;;;;;5040190;28;20044;-66
2022/10/28 02:37:39;;;;;;;28.30;16.63;;;;;;;;;;5035350;28;20048;-65
2022/10/28 02:40:08;;;;;;;33.35;17.52;;;;;;;;;;5038976;28;20037;-65
2022/10/28 02:42:36;;;;;;;29.42;17.23;;;;;;;;;;5033490;28;20161;-65
2022/10/28 02:45:06;;;;;;;34.65;17.38;;;;;;;;;;5034227;28;20045;-65
2022/10/28 02:47:34;;;;;;;34.55;16.35;;;;;;;;;;5031348;28;20132;-65
2022/10/28 02:50:02;;;;;;;31.15;16.48;;;;;;;;;;5035325;28;20043;-65
2022/10/28 02:52:29;;;;;;;32.60;16.33;;;;;;;;;;5034971;28;20107;-65
2022/10/28 02:54:57;;;;;;;28.83;16.67;;;;;;;;;;5062246;28;20052;-66
2022/10/28 02:57:26;;;;;;;37.00;17.05;;;;;;;;;;5034138;28;20045;-65
2022/10/28 02:59:53;;;;;;;30.05;16.33;;;;;;;;;;5032575;28;20094;-65
2022/10/28 03:02:19;;;;;;;36.95;17.83;;;;;;;;;;5034724;28;21632;-65
2022/10/28 03:04:45;;;;;;;29.65;16.67;;;;;;;;;;5036881;28;20394;-65
2022/10/28 03:07:11;;;;;;;30.60;17.25;;;;;;;;;;5033502;28;20040;-65
2022/10/28 03:09:38;;;;;;;32.03;18.25;;;;;;;;;;5033223;28;20132;-65
2022/10/28 03:12:04;;;;;;;29.05;16.40;;;;;;;;;;5034280;28;20091;-65
2022/10/28 03:14:30;;;;;;;29.05;17.60;;;;;;;;;;5066570;28;20056;-65
2022/10/28 03:16:56;;;;;;;30.67;17.65;;;;;;;;;;5036211;28;20037;-65
2022/10/28 03:19:23;;;;;;;36.60;18.33;;;;;;;;;;5035422;28;20084;-65
2022/10/28 03:21:50;;;;;;;32.40;17.23;;;;;;;;;;5035968;28;20053;-65
2022/10/28 03:24:16;;;;;;;32.40;17.98;;;;;;;;;;5035202;28;20952;-65
2022/10/28 03:26:42;;;;;;;33.05;17.35;;;;;;;;;;5036041;28;20045;-65
2022/10/28 03:29:08;;;;;;;29.30;17.77;;;;;;;;;;5065719;28;20417;-66
2022/10/28 03:31:34;;;;;;;29.10;16.70;;;;;;;;;;5032113;28;20455;-65
2022/10/28 03:34:00;;;;;;;34.20;17.30;;;;;;;;;;5032154;28;20049;-65
2022/10/28 03:36:26;;;;;;;33.53;17.80;;;;;;;;;;5035434;28;20084;-65
2022/10/28 03:38:53;;;;;;;32.25;18.10;;;;;;;;;;5035293;28;20095;-65
2022/10/28 03:41:19;;;;;;;37.13;17.83;;;;;;;;;;5035495;28;20051;-65
2022/10/28 03:43:45;;;;;;;26.67;17.48;;;;;;;;;;5037084;28;20130;-65
2022/10/28 03:46:11;;;;;;;27.83;17.13;;;;;;;;;;5039497;28;20115;-65
2022/10/28 03:48:37;;;;;;;31.60;17.95;;;;;;;;;;5040166;28;20137;-65
2022/10/28 03:51:03;;;;;;;30.00;17.65;;;;;;;;;;5038264;28;20420;-65
2022/10/28 03:53:30;;;;;;;32.15;16.88;;;;;;;;;;5039891;28;20067;-65
2022/10/28 03:55:57;;;;;;;31.50;18.08;;;;;;;;;;5034933;28;20437;-65
2022/10/28 03:58:23;;;;;;;36.38;18.67;;;;;;;;;;5037994;28;20124;-65
2022/10/28 04:00:50;;;;;;;26.00;16.35;;;;;;;;;;5038133;28;20330;-66
2022/10/28 04:03:16;;;;;;;32.70;18.35;;;;;;;;;;5039925;28;20040;-65
2022/10/28 04:05:43;;;;;;;29.08;17.58;;;;;;;;;;5037818;28;20037;-65
2022/10/28 04:08:09;;;;;;;30.05;17.15;;;;;;;;;;5039058;28;20056;-65
2022/10/28 04:10:35;;;;;;;31.80;16.92;;;;;;;;;;5037733;28;20143;-65
2022/10/28 04:13:03;;;;;;;28.63;16.65;;;;;;;;;;5030892;28;20230;-65
2022/10/28 04:15:30;;;;;;;30.98;16.13;;;;;;;;;;5033087;28;20089;-65
2022/10/28 04:17:56;;;;;;;35.10;18.17;;;;;;;;;;5036287;28;20048;-65
2022/10/28 04:20:23;;;;;;;35.08;17.92;;;;;;;;;;5032175;28;20132;-65
2022/10/28 04:22:49;;;;;;;33.30;18.23;;;;;;;;;;5031028;28;20041;-66
2022/10/28 04:25:15;;;;;;;39.60;19.05;;;;;;;;;;5035402;28;20895;-66
2022/10/28 04:27:43;;;;;;;37.45;20.63;;;;;;;;;;5031993;28;20037;-65
2022/10/28 04:30:11;;;;;;;33.53;19.00;;;;;;;;;;5031773;28;21905;-66
2022/10/28 04:32:38;;;;;;;39.35;19.88;;;;;;;;;;5032567;28;20052;-65
2022/10/28 04:35:04;;;;;;;37.08;20.55;;;;;;;;;;5032849;28;20049;-65
2022/10/28 04:37:31;;;;;;;38.40;21.02;;;;;;;;;;5030051;28;20171;-65
2022/10/28 04:39:57;;;;;;;35.90;20.80;;;;;;;;;;5033923;28;20049;-66
2022/10/28 04:42:23;;;;;;;38.25;19.48;;;;;;;;;;5036282;28;20540;-66
2022/10/28 04:44:49;;;;;;;42.58;20.65;;;;;;;;;;5070121;28;20057;-65
2022/10/28 04:47:16;;;;;;;36.38;19.65;;;;;;;;;;5038937;28;20051;-65
2022/10/28 04:49:42;;;;;;;37.42;20.77;;;;;;;;;;5047735;28;20037;-65
2022/10/28 04:52:09;;;;;;;38.58;20.40;;;;;;;;;;5038282;28;20043;-65
2022/10/28 04:54:35;;;;;;;39.22;21.00;;;;;;;;;;5069915;28;20104;-65
2022/10/28 04:57:02;;;;;;;32.92;19.45;;;;;;;;;;5041718;28;20055;-65
2022/10/28 04:59:28;;;;;;;34.47;21.17;;;;;;;;;;5039378;28;20539;-65
2022/10/28 05:01:54;;;;;;;38.05;19.58;;;;;;;;;;5039537;28;20049;-65
2022/10/28 05:04:20;;;;;;;39.50;20.25;;;;;;;;;;5040897;28;20052;-65
2022/10/28 05:06:46;;;;;;;35.05;20.38;;;;;;;;;;5039693;28;20048;-65
2022/10/28 05:09:13;;;;;;;33.17;18.70;;;;;;;;;;5054806;28;20117;-67
2022/10/28 05:11:39;;;;;;;34.92;18.77;;;;;;;;;;5040915;28;20083;-65
2022/10/28 05:14:05;;;;;;;40.97;20.75;;;;;;;;;;5040511;28;20049;-65
2022/10/28 05:16:31;;;;;;;35.65;20.90;;;;;;;;;;5039679;28;20377;-65
2022/10/28 05:18:58;;;;;;;32.95;20.02;;;;;;;;;;5040608;28;20162;-65
2022/10/28 05:21:24;;;;;;;35.42;19.77;;;;;;;;;;5039437;28;21249;-65
2022/10/28 05:23:50;;;;;;;39.30;19.55;;;;;;;;;;5037251;28;20056;-66
2022/10/28 05:26:17;;;;;;;32.92;18.90;;;;;;;;;;5040014;28;20147;-65
2022/10/28 05:28:43;;;;;;;32.63;18.98;;;;;;;;;;5043287;28;20460;-65
2022/10/28 05:31:09;;;;;;;33.47;19.58;;;;;;;;;;5044448;28;20045;-65
2022/10/28 05:33:35;;;;;;;31.67;18.77;;;;;;;;;;5043538;28;20120;-66
2022/10/28 05:36:02;;;;;;;30.77;18.38;;;;;;;;;;5078900;28;20068;-66
2022/10/28 05:38:28;;;;;;;33.42;18.77;;;;;;;;;;5040650;28;20045;-65
2022/10/28 05:40:54;;;;;;;33.10;18.75;;;;;;;;;;5043140;28;20388;-65
2022/10/28 05:43:20;;;;;;;30.77;18.60;;;;;;;;;;5049548;28;20445;-65
2022/10/28 05:45:55;;;;;;;33.17;18.42;;;;;;;;;;5051224;28;20520;-66
2022/10/28 05:48:22;;;;;;;31.20;17.92;;;;;;;;;;5049383;28;20056;-65
2022/10/28 05:50:48;;;;;;;33.75;18.17;;;;;;;;;;5045562;28;20099;-65
2022/10/28 05:53:14;;;;;;;30.25;19.50;;;;;;;;;;5042481;28;20062;-65
2022/10/28 05:55:40;;;;;;;36.40;19.05;;;;;;;;;;5041398;28;20041;-65
2022/10/28 05:58:08;;;;;;;30.83;18.20;;;;;;;;;;5045241;28;20190;-65
2022/10/28 06:00:35;;;;;;;33.47;18.20;;;;;;;;;;5065648;28;20056;-65
2022/10/28 06:03:02;;;;;;;27.45;17.38;;;;;;;;;;5046192;28;20464;-65
2022/10/28 06:05:29;;;;;;;32.63;18.00;;;;;;;;;;5041887;28;20052;-65
2022/10/28 06:07:55;;;;;;;32.65;18.83;;;;;;;;;;5050327;28;20239;-65
2022/10/28 06:10:21;;;;;;;29.67;18.80;;;;;;;;;;5051614;28;20041;-65
2022/10/28 06:12:47;;;;;;;30.70;18.15;;;;;;;;;;5045742;28;21741;-65
2022/10/28 06:15:13;;;;;;;33.65;18.85;;;;;;;;;;5044253;28;20048;-65
2022/10/28 06:17:39;;;;;;;35.50;19.33;;;;;;;;;;5046902;28;20048;-65
2022/10/28 06:20:06;;;;;;;37.05;19.40;;;;;;;;;;5051233;28;20163;-65
2022/10/28 06:22:32;;;;;;;29.20;17.67;;;;;;;;;;5047185;28;20076;-65
2022/10/28 06:24:58;;;;;;;38.03;18.98;;;;;;;;;;5049153;28;20045;-65
2022/10/28 06:27:24;;;;;;;36.00;18.98;;;;;;;;;;5046526;28;20457;-65
2022/10/28 06:29:50;;;;;;;28.90;18.60;;;;;;;;;;5044857;28;20037;-65
2022/10/28 06:32:16;;;;;;;34.90;18.65;;;;;;;;;;5048261;28;20053;-65
2022/10/28 06:34:42;;;;;;;30.00;17.33;;;;;;;;;;5050051;28;20124;-66
2022/10/28 06:37:09;;;;;;;27.33;16.95;;;;;;;;;;5045750;28;20106;-65
2022/10/28 06:39:37;;;;;;;37.47;18.98;;;;;;;;;;5046750;28;20056;-65
2022/10/28 06:42:03;;;;;;;31.98;18.00;;;;;;;;;;5065605;28;20090;-65
2022/10/28 06:44:29;;;;;;;34.67;18.13;;;;;;;;;;5049993;28;20374;-65
2022/10/28 06:46:55;;;;;;;30.88;16.40;;;;;;;;;;5084799;28;20131;-65
2022/10/28 06:49:22;;;;;;;34.35;18.60;;;;;;;;;;5055280;28;20163;-65
2022/10/28 06:51:48;;;;;;;33.72;18.17;;;;;;;;;;5052933;28;20044;-65
2022/10/28 06:54:15;;;;;;;30.85;17.40;;;;;;;;;;5048463;28;20200;-65
2022/10/28 06:56:44;;;;;;;37.63;18.60;;;;;;;;;;5081719;28;20090;-65
2022/10/28 06:59:10;;;;;;;29.13;16.80;;;;;;;;;;5052637;28;20053;-66
2022/10/28 07:01:37;;;;;;;27.67;16.60;;;;;;;;;;5049294;28;20064;-66
2022/10/28 07:04:03;;;;;;;40.67;18.63;;;;;;;;;;5037482;28;20121;-64
2022/10/28 07:06:29;;;;;;;30.13;18.67;;;;;;;;;;5028228;28;20147;-64
2022/10/28 07:08:56;;;;;;;33.17;18.52;;;;;;;;;;5079958;28;20166;-65
2022/10/28 07:11:23;;;;;;;30.75;16.02;;;;;;;;;;5047692;28;20049;-64
2022/10/28 07:13:49;;;;;;;30.10;16.55;;;;;;;;;;5044075;28;20042;-65
2022/10/28 07:16:15;;;;;;;26.65;16.33;;;;;;;;;;5046518;28;20084;-64
2022/10/28 07:18:41;;;;;;;30.80;16.48;;;;;;;;;;5045185;28;20044;-64
2022/10/28 07:21:07;;;;;;;27.60;14.82;;;;;;;;;;5042682;28;20057;-65
2022/10/28 07:23:33;;;;;;;30.23;15.55;;;;;;;;;;5046511;28;20479;-65
2022/10/28 07:26:00;;;;;;;31.60;15.73;;;;;;;;;;5044949;28;20065;-65
2022/10/28 07:28:27;;;;;;;31.17;14.32;;;;;;;;;;5046200;28;20374;-64
2022/10/28 07:30:53;;;;;;;24.77;14.13;;;;;;;;;;5049006;28;20530;-65
2022/10/28 07:33:20;;;;;;;26.23;15.50;;;;;;;;;;5048537;28;20409;-65
2022/10/28 07:35:46;;;;;;;26.98;13.15;;;;;;;;;;5056852;28;20117;-64
2022/10/28 07:38:12;;;;;;;25.00;13.65;;;;;;;;;;5050657;28;20049;-65
2022/10/28 07:40:38;;;;;;;26.13;13.57;;;;;;;;;;5050381;28;20457;-65
2022/10/28 07:43:04;;;;;;;22.63;12.73;;;;;;;;;;5049136;28;20037;-65
2022/10/28 07:45:31;;;;;;;23.10;12.68;;;;;;;;;;5044136;28;20494;-66
2022/10/28 07:47:57;;;;;;;28.88;13.85;;;;;;;;;;5046489;28;20052;-65
2022/10/28 07:50:23;;;;;;;19.63;12.45;;;;;;;;;;5049676;28;20389;-65
2022/10/28 07:52:49;;;;;;;28.30;13.57;;;;;;;;;;5048330;28;20045;-65
2022/10/28 07:55:15;;;;;;;28.95;12.52;;;;;;;;;;5042039;28;20053;-65
2022/10/28 07:57:41;;;;;;;19.45;12.35;;;;;;;;;;5045238;28;20064;-65
2022/10/28 08:00:08;;;;;;;23.60;12.57;;;;;;;;;;5044075;28;20140;-65
2022/10/28 08:02:34;;;;;;;25.40;12.77;;;;;;;;;;5045897;28;20535;-65
2022/10/28 08:05:01;;;;;;;24.40;12.18;;;;;;;;;;5045097;28;20041;-65
2022/10/28 08:07:27;;;;;;;24.42;11.63;;;;;;;;;;5045372;28;20476;-65
2022/10/28 08:09:53;;;;;;;28.00;12.88;;;;;;;;;;5046659;28;20140;-65
2022/10/28 08:12:20;;;;;;;20.05;11.95;;;;;;;;;;5044096;28;20045;-65
2022/10/28 08:14:46;;;;;;;20.88;10.70;;;;;;;;;;5041962;28;20041;-65
2022/10/28 08:17:12;;;;;;;22.05;11.30;;;;;;;;;;5049971;28;20063;-65
2022/10/28 08:19:38;;;;;;;21.60;11.50;;;;;;;;;;5050379;28;20040;-65
2022/10/28 08:22:04;;;;;;;23.40;12.25;;;;;;;;;;5050575;28;20036;-65
2022/10/28 08:24:30;;;;;;;19.52;11.90;;;;;;;;;;5048381;28;20082;-65
2022/10/28 08:26:57;;;;;;;23.83;11.15;;;;;;;;;;5052089;28;20120;-64
2022/10/28 08:29:23;;;;;;;25.70;11.85;;;;;;;;;;5048400;28;20098;-65
2022/10/28 08:31:49;;;;;;;23.52;11.55;;;;;;;;;;5048088;28;20055;-64
2022/10/28 08:34:15;;;;;;;24.88;11.38;;;;;;;;;;5048974;28;20045;-65
2022/10/28 08:36:41;;;;;;;23.88;11.55;;;;;;;;;;5046665;28;20451;-65
2022/10/28 08:39:07;;;;;;;27.85;11.65;;;;;;;;;;5044803;28;20040;-65
2022/10/28 08:41:34;;;;;;;22.17;9.75;;;;;;;;;;5048989;28;20041;-64
2022/10/28 08:44:01;;;;;;;18.60;10.30;;;;;;;;;;5047573;28;20045;-64
2022/10/28 08:46:37;;;;;;;22.83;10.93;;;;;;;;;;5047946;28;20037;-64
2022/10/28 08:49:08;;;;;;;19.00;10.13;;;;;;;;;;5079097;28;20433;-65
2022/10/28 08:51:38;;;;;;;19.50;10.35;;;;;;;;;;5047785;28;20049;-65
2022/10/28 08:54:07;;;;;;;14.95;9.85;;;;;;;;;;5045774;28;20053;-65
2022/10/28 08:56:35;;;;;;;30.08;10.38;;;;;;;;;;5046599;28;20055;-65
2022/10/28 08:59:04;;;;;;;27.95;11.25;;;;;;;;;;5049096;28;20081;-65
2022/10/28 09:01:39;;;;;;;23.15;9.65;;;;;;;;;;5051167;28;20055;-65
2022/10/28 09:04:21;;;;;;;18.48;9.80;;;;;;;;;;5049892;28;20041;-65
2022/10/28 09:06:48;;;;;;;29.38;11.05;;;;;;;;;;5046994;28;20116;-65
2022/10/28 09:09:18;;;;;;;23.25;9.57;;;;;;;;;;5050914;28;20451;-65
2022/10/28 09:11:52;;;;;;;23.90;10.77;;;;;;;;;;5050392;28;20542;-65
2022/10/28 09:14:24;;;;;;;18.35;10.18;;;;;;;;;;5049375;28;20135;-65
2022/10/28 09:17:10;;;;;;;18.60;9.65;;;;;;;;;;5047446;28;20488;-65
2022/10/28 09:19:43;;;;;;;24.88;9.20;;;;;;;;;;5048122;28;20124;-64
2022/10/28 09:22:21;;;;;;;23.17;10.10;;;;;;;;;;5050314;28;20373;-65
2022/10/28 09:24:51;;;;;;;20.45;10.85;;;;;;;;;;5050546;28;20045;-64
2022/10/28 09:27:17;;;;;;;18.27;9.63;;;;;;;;;;5044907;28;20511;-65
2022/10/28 09:29:52;;;;;;;19.77;10.23;;;;;;;;;;5051152;28;20036;-65
2022/10/28 09:32:33;;;;;;;22.73;9.38;;;;;;;;;;5049535;28;20052;-65
2022/10/28 09:35:05;;;;;;;21.15;9.98;;;;;;;;;;5051446;28;20042;-65
2022/10/28 09:37:36;;;;;;;20.25;9.95;;;;;;;;;;5050132;28;20397;-65
2022/10/28 09:40:07;;;;;;;21.08;10.05;;;;;;;;;;5081626;28;20041;-65
2022/10/28 09:42:38;;;;;;;18.95;10.35;;;;;;;;;;5048847;28;20090;-65
2022/10/28 09:45:05;;;;;;;20.13;9.40;;;;;;;;;;5050303;28;20077;-65
2022/10/28 09:47:35;;;;;;;20.58;10.05;;;;;;;;;;5048545;28;20087;-65
2022/10/28 09:50:04;;;;;;;22.17;9.48;;;;;;;;;;5048645;28;20044;-65
2022/10/28 09:52:32;;;;;;;20.13;9.50;;;;;;;;;;5048642;28;20048;-65
2022/10/28 09:55:01;;;;;;;25.85;9.68;;;;;;;;;;5049780;28;20206;-65
2022/10/28 09:57:30;;;;;;;21.63;10.23;;;;;;;;;;5045142;28;20048;-65
2022/10/28 09:59:56;;;;;;;20.77;9.57;;;;;;;;;;5044199;28;20040;-65
2022/10/28 10:02:26;;;;;;;19.50;8.80;;;;;;;;;;5046660;28;20098;-65
2022/10/28 10:04:52;;;;;;;24.13;10.90;;;;;;;;;;5040971;28;20137;-65
2022/10/28 10:07:25;;;;;;;21.88;9.27;;;;;;;;;;5044341;28;20519;-65
2022/10/28 10:09:51;;;;;;;16.63;9.23;;;;;;;;;;5047237;28;20048;-65
2022/10/28 10:12:18;;;;;;;22.27;10.52;;;;;;;;;;5043247;28;20080;-65
2022/10/28 10:14:47;;;;;;;22.35;9.02;;;;;;;;;;5043779;28;20098;-65
2022/10/28 10:17:17;;;;;;;20.95;8.90;;;;;;;;;;5045915;28;20050;-65
2022/10/28 10:20:02;;;;;;;19.80;8.73;;;;;;;;;;5042340;28;20048;-65
2022/10/28 10:22:30;;;;;;;16.55;8.52;;;;;;;;;;5078064;28;20194;-64
2022/10/28 10:24:57;;;;;;;20.23;8.85;;;;;;;;;;5043496;28;20041;-64
2022/10/28 10:27:25;;;;;;;22.02;8.75;;;;;;;;;;5075075;28;20095;-70
2022/10/28 10:29:52;;;;;;;22.13;9.07;;;;;;;;;;5045246;28;20152;-64
2022/10/28 10:32:18;;;;;;;18.27;9.02;;;;;;;;;;5049081;28;20056;-65
2022/10/28 10:34:45;;;;;;;19.83;8.65;;;;;;;;;;5046236;28;20094;-65
2022/10/28 10:37:19;;;;;;;18.20;9.57;;;;;;;;;;5050841;28;20045;-65
2022/10/28 10:39:57;;;;;;;16.40;8.63;;;;;;;;;;5039270;28;20052;-65
2022/10/28 10:42:24;;;;;;;21.98;8.18;;;;;;;;;;5043090;28;20041;-65
2022/10/28 10:44:59;;;;;;;15.38;7.65;;;;;;;;;;5076866;28;20049;-64
2022/10/28 10:47:25;;;;;;;23.08;8.50;;;;;;;;;;5045887;28;20496;-65
2022/10/28 10:49:53;;;;;;;22.13;8.77;;;;;;;;;;5045998;28;20039;-65
2022/10/28 10:52:22;;;;;;;20.00;8.02;;;;;;;;;;5043073;28;20045;-64
2022/10/28 10:54:57;;;;;;;24.05;9.65;;;;;;;;;;5042763;28;20049;-65
2022/10/28 10:57:25;;;;;;;18.38;8.27;;;;;;;;;;5077793;28;20041;-65
2022/10/28 10:59:52;;;;;;;19.45;8.75;;;;;;;;;;5042201;28;20055;-65
2022/10/28 11:02:21;;;;;;;19.95;7.93;;;;;;;;;;5047664;28;20393;-65
2022/10/28 11:04:51;;;;;;;24.13;7.93;;;;;;;;;;5042745;28;20420;-64
2022/10/28 11:07:17;;;;;;;19.83;8.05;;;;;;;;;;5048526;28;20393;-64
2022/10/28 11:09:46;;;;;;;17.20;7.13;;;;;;;;;;5041674;28;20045;-64
2022/10/28 11:12:14;;;;;;;23.25;7.55;;;;;;;;;;5046159;28;20037;-64
2022/10/28 11:14:52;;;;;;;17.75;7.45;;;;;;;;;;5041075;28;20041;-65
2022/10/28 11:17:23;;;;;;;18.80;6.65;;;;;;;;;;5037623;28;20089;-64
2022/10/28 11:19:53;;;;;;;14.80;6.78;;;;;;;;;;5037089;28;20045;-65
2022/10/28 11:22:37;;;;;;;20.63;7.63;;;;;;;;;;5040451;28;20056;-64
2022/10/28 11:25:11;;;;;;;19.55;6.90;;;;;;;;;;5036437;28;20661;-64
2022/10/28 11:27:47;;;;;;;17.58;7.38;;;;;;;;;;5038190;28;20095;-64
2022/10/28 11:30:17;;;;;;;18.08;6.80;;;;;;;;;;5075649;28;20048;-63
2022/10/28 11:33:07;;;;;;;19.92;7.07;;;;;;;;;;5040400;28;20120;-64
2022/10/28 11:35:43;;;;;;;17.35;6.82;;;;;;;;;;5038480;28;20158;-71
2022/10/28 11:38:28;;;;;;;17.08;7.13;;;;;;;;;;5040723;28;20080;-64
2022/10/28 11:41:09;;;;;;;20.15;6.80;;;;;;;;;;5076915;28;20051;-65
2022/10/28 11:43:47;;;;;;;17.90;6.70;;;;;;;;;;5044094;28;20139;-64
2022/10/28 11:46:33;;;;;;;16.20;6.35;;;;;;;;;;5073009;28;20053;-65
2022/10/28 11:49:13;;;;;;;19.35;7.38;;;;;;;;;;5046289;28;20116;-65
2022/10/28 11:51:50;;;;;;;19.90;6.40;;;;;;;;;;5041866;28;20414;-65
2022/10/28 11:54:22;;;;;;;11.02;5.72;;;;;;;;;;5042983;28;20500;-65
2022/10/28 11:56:53;;;;;;;16.75;6.25;;;;;;;;;;5044797;28;20044;-65
2022/10/28 11:59:45;;;;;;;17.65;6.50;;;;;;;;;;5040142;28;20072;-65
2022/10/28 12:02:20;;;;;;;26.25;8.07;;;;;;;;;;5075697;28;20105;-65
2022/10/28 12:04:59;;;;;;;20.23;6.75;;;;;;;;;;5041893;28;20037;-65
2022/10/28 12:07:38;;;;;;;22.08;6.70;;;;;;;;;;5043462;28;20037;-65
2022/10/28 12:10:14;;;;;;;19.38;6.95;;;;;;;;;;5045364;28;20067;-65
2022/10/28 12:12:49;;;;;;;17.98;6.90;;;;;;;;;;5043996;28;20128;-65
2022/10/28 12:15:20;;;;;;;23.75;7.15;;;;;;;;;;5074104;28;20055;-65
2022/10/28 12:17:52;;;;;;;18.98;7.63;;;;;;;;;;5042834;28;20046;-65
2022/10/28 12:20:21;;;;;;;20.65;8.77;;;;;;;;;;5040705;28;20049;-65
2022/10/28 12:22:50;;;;;;;20.25;6.95;;;;;;;;;;5040108;28;20042;-65
2022/10/28 12:25:18;;;;;;;17.80;7.20;;;;;;;;;;5041651;28;20075;-65
2022/10/28 12:27:49;;;;;;;17.90;7.28;;;;;;;;;;5039203;28;20040;-65
2022/10/28 12:30:20;;;;;;;18.83;7.47;;;;;;;;;;5075919;28;20099;-65
2022/10/28 12:32:48;;;;;;;20.33;7.68;;;;;;;;;;5045806;28;20037;-65
2022/10/28 12:35:17;;;;;;;21.40;7.05;;;;;;;;;;5044867;28;20067;-65
2022/10/28 12:37:46;;;;;;;13.60;6.88;;;;;;;;;;5045153;28;20154;-65
2022/10/28 12:40:15;;;;;;;23.05;7.00;;;;;;;;;;5041396;28;20049;-65
2022/10/28 12:42:45;;;;;;;17.58;7.15;;;;;;;;;;5042327;28;20465;-65
2022/10/28 12:45:13;;;;;;;17.85;7.05;;;;;;;;;;5072883;28;20054;-65
2022/10/28 12:47:42;;;;;;;19.48;7.68;;;;;;;;;;5042917;28;20037;-65
2022/10/28 12:50:08;;;;;;;19.65;7.38;;;;;;;;;;5075033;28;20417;-65
2022/10/28 12:52:38;;;;;;;20.67;7.93;;;;;;;;;;5076045;28;20684;-65
2022/10/28 12:55:14;;;;;;;16.30;7.30;;;;;;;;;;5041023;28;20057;-65
2022/10/28 12:57:42;;;;;;;19.88;8.23;;;;;;;;;;5044483;28;20403;-65
2022/10/28 13:00:12;;;;;;;16.58;7.68;;;;;;;;;;5040060;28;20106;-65
2022/10/28 13:02:46;;;;;;;21.00;7.30;;;;;;;;;;5076100;28;20114;-65
2022/10/28 13:05:21;;;;;;;20.40;8.40;;;;;;;;;;5046246;28;20044;-65
2022/10/28 13:07:56;;;;;;;17.77;8.02;;;;;;;;;;5046964;28;20048;-65
2022/10/28 13:10:29;;;;;;;16.80;8.02;;;;;;;;;;5046042;28;20043;-65
2022/10/28 13:13:04;;;;;;;22.60;8.17;;;;;;;;;;5044086;28;20137;-65
2022/10/28 13:15:38;;;;;;;23.65;7.53;;;;;;;;;;5049410;28;20045;-65
2022/10/28 13:18:18;;;;;;;22.08;7.57;;;;;;;;;;5045129;28;20049;-65
2022/10/28 13:21:03;;;;;;;20.88;9.05;;;;;;;;;;5044456;28;20048;-65
2022/10/28 13:23:35;;;;;;;23.17;8.50;;;;;;;;;;5046499;28;20124;-65
2022/10/28 13:26:08;;;;;;;24.20;7.40;;;;;;;;;;5048292;28;20167;-65
2022/10/28 13:28:36;;;;;;;20.42;8.27;;;;;;;;;;5041614;28;20088;-65
2022/10/28 13:31:04;;;;;;;19.65;7.85;;;;;;;;;;5044620;28;20037;-64
2022/10/28 13:33:31;;;;;;;20.92;8.60;;;;;;;;;;5045610;28;20454;-66
2022/10/28 13:36:08;;;;;;;21.27;7.60;;;;;;;;;;5044665;28;20076;-64
2022/10/28 13:38:35;;;;;;;19.67;7.18;;;;;;;;;;5047372;28;20567;-64
2022/10/28 13:41:01;;;;;;;17.33;7.22;;;;;;;;;;5044082;28;20515;-65
2022/10/28 13:43:47;;;;;;;19.15;7.38;;;;;;;;;;5060995;28;20065;-65
2022/10/28 13:46:13;;;;;;;20.65;7.57;;;;;;;;;;5043852;28;20132;-66
2022/10/28 13:48:42;;;;;;;21.02;7.20;;;;;;;;;;5076639;28;20172;-66
2022/10/28 13:51:08;;;;;;;22.13;9.07;;;;;;;;;;5043018;28;20079;-66
2022/10/28 13:53:55;;;;;;;19.70;6.93;;;;;;;;;;5073728;28;20064;-66
2022/10/28 13:56:21;;;;;;;23.25;7.72;;;;;;;;;;5043719;28;20460;-66
2022/10/28 13:58:50;;;;;;;24.33;7.95;;;;;;;;;;5045232;28;20064;-66
2022/10/28 14:01:36;;;;;;;19.67;8.25;;;;;;;;;;5044436;28;20041;-66
2022/10/28 14:04:03;;;;;;;21.10;8.27;;;;;;;;;;5037764;28;20045;-66
2022/10/28 14:06:31;;;;;;;18.02;7.10;;;;;;;;;;5042862;28;20119;-66
2022/10/28 14:08:57;;;;;;;22.73;8.68;;;;;;;;;;5044638;28;20468;-66
2022/10/28 14:11:26;;;;;;;21.15;9.00;;;;;;;;;;5040728;28;20135;-66
2022/10/28 14:13:54;;;;;;;23.30;7.55;;;;;;;;;;5042863;28;20076;-66
2022/10/28 14:16:26;;;;;;;19.73;7.13;;;;;;;;;;5046685;28;20045;-66
2022/10/28 14:18:55;;;;;;;26.40;8.60;;;;;;;;;;5045185;28;20594;-66
2022/10/28 14:21:22;;;;;;;22.42;8.63;;;;;;;;;;5040593;28;20091;-66
2022/10/28 14:23:48;;;;;;;19.70;8.63;;;;;;;;;;5040866;28;20047;-64
2022/10/28 14:26:14;;;;;;;20.60;8.07;;;;;;;;;;5043314;28;20037;-64
2022/10/28 14:28:40;;;;;;;26.55;9.57;;;;;;;;;;5042604;28;20093;-66
2022/10/28 14:31:07;;;;;;;22.27;8.43;;;;;;;;;;5044318;28;20029;-66